This is the latest recevied weather packets stored in our database for station/object KD2FKI. If no packets are shown the sender has not sent any weather packets the latest 10 day(s).
| Time | Temp. | Humidity | Pressure | Rain* | Wind** | Luminosity | Snow |
|---|---|---|---|---|---|---|---|
| 1778233846 | 5.56° C | 83% | - | 0 mm | - | - | - |
| 1778233236 | 6.11° C | 82% | - | 0 mm | - | - | - |
| 1778232643 | 6.67° C | 81% | - | 0 mm | - | - | - |
| 1778232034 | 7.22° C | 78% | - | 0 mm | - | - | - |
| 1778231480 | 7.22° C | 77% | - | 0 mm | - | - | - |
| 1778230831 | 7.78° C | 74% | - | 0 mm | - | - | - |
| 1778230238 | 8.33° C | 71% | - | 0 mm | - | - | - |
| 1778229647 | 8.89° C | 71% | - | 0 mm | - | - | - |
| 1778229036 | 8.89° C | 71% | - | 0 mm | - | - | - |
| 1778228445 | 8.89° C | 71% | - | 0 mm | - | - | - |
| 1778227834 | 8.89° C | 70% | - | 0 mm | - | - | - |
| 1778227242 | 9.44° C | 68% | - | 0 mm | - | - | - |
| 1778226635 | 10° C | 65% | - | 0 mm | - | - | - |
| 1778226040 | 10.56° C | 63% | - | 0 mm | - | - | - |
| 1778225429 | 10.56° C | 62% | - | 0 mm | - | - | - |
| 1778224837 | 11.11° C | 61% | - | 0 mm | - | - | - |
| 1778224247 | 11.11° C | 61% | - | 0 mm | - | - | - |
| 1778223634 | 11.67° C | 59% | - | 0 mm | - | - | - |
| 1778223045 | 11.67° C | 58% | - | 0 mm | - | - | - |
| 1778222432 | 11.67° C | 58% | - | 0 mm | - | - | - |
| 1778221841 | 12.22° C | 59% | - | 0 mm | - | - | - |
| 1778221230 | 11.67° C | 62% | - | 0 mm | - | - | - |
| 1778220640 | 11.67° C | 64% | - | 0 mm | - | - | - |
| 1778220048 | 11.67° C | 67% | - | 0 mm | - | - | - |
| 1778219435 | 11.67° C | 68% | - | 0 mm | - | - | - |
* Rain latest hour (hover to see other rain measurements)
** Current wind speed in m/s (hover to see current wind gust speed)